createdAt,value
2023-06-06T00:01:42.181Z,1.27
2023-06-06T00:04:09.078Z,1.63
2023-06-06T00:06:46.079Z,1.42
2023-06-06T00:09:13.185Z,1.30
2023-06-06T00:11:40.936Z,1.27
2023-06-06T00:14:09.215Z,1.40
2023-06-06T00:16:36.148Z,1.20
2023-06-06T00:19:06.781Z,1.25
2023-06-06T00:21:37.247Z,1.20
2023-06-06T00:24:04.638Z,1.70
2023-06-06T00:26:31.691Z,1.55
2023-06-06T00:28:58.519Z,1.23
2023-06-06T00:31:25.574Z,1.20
2023-06-06T00:33:52.417Z,1.35
2023-06-06T00:36:19.242Z,1.27
2023-06-06T00:38:49.905Z,1.70
2023-06-06T00:41:17.789Z,1.45
2023-06-06T00:43:47.556Z,1.27
2023-06-06T00:46:16.953Z,1.40
2023-06-06T00:48:44.647Z,1.48
2023-06-06T00:51:12.044Z,1.42
2023-06-06T00:53:40.943Z,1.25
2023-06-06T00:56:08.901Z,1.80
2023-06-06T00:58:38.100Z,1.33
2023-06-06T01:01:06.211Z,1.83
2023-06-06T01:03:34.464Z,1.20
2023-06-06T01:06:02.150Z,1.40
2023-06-06T01:08:33.889Z,1.48
2023-06-06T01:11:11.889Z,1.20
2023-06-06T01:14:04.695Z,1.23
2023-06-06T01:16:35.044Z,1.30
2023-06-06T01:19:03.266Z,1.30
2023-06-06T01:21:40.996Z,1.40
2023-06-06T01:24:09.758Z,1.00
2023-06-06T01:26:37.028Z,1.20
2023-06-06T01:29:04.118Z,2.40
2023-06-06T01:31:37.665Z,1.23
2023-06-06T01:34:25.904Z,1.30
2023-06-06T01:37:23.066Z,1.50
2023-06-06T01:39:54.538Z,1.30
2023-06-06T01:42:22.965Z,1.70
2023-06-06T01:44:54.074Z,1.27
2023-06-06T01:47:22.152Z,1.30
2023-06-06T01:49:50.759Z,1.13
2023-06-06T01:52:20.322Z,1.30
2023-06-06T01:54:48.445Z,1.30
2023-06-06T01:57:15.353Z,1.30
2023-06-06T01:59:44.222Z,1.30
2023-06-06T02:02:12.200Z,1.52
2023-06-06T02:04:39.542Z,1.92
2023-06-06T02:07:09.600Z,1.67
2023-06-06T02:09:38.315Z,1.20
2023-06-06T02:12:06.549Z,1.73
2023-06-06T02:14:34.265Z,1.38
2023-06-06T02:18:02.994Z,1.70
2023-06-06T02:20:31.721Z,1.45
2023-06-06T02:23:00.878Z,1.55
2023-06-06T02:25:28.180Z,1.73
2023-06-06T02:27:57.237Z,1.52
2023-06-06T02:30:25.314Z,1.58
2023-06-06T02:32:52.615Z,1.42
2023-06-06T02:35:22.562Z,1.50
2023-06-06T02:37:50.029Z,1.20
2023-06-06T02:40:17.981Z,1.40
2023-06-06T02:42:45.037Z,1.20
2023-06-06T02:45:12.605Z,1.50
2023-06-06T02:47:40.004Z,1.52
2023-06-06T02:50:08.309Z,1.60
2023-06-06T02:52:37.165Z,1.77
2023-06-06T02:55:04.958Z,1.42
2023-06-06T02:57:32.091Z,1.80
2023-06-06T03:00:09.678Z,1.60
2023-06-06T03:02:36.998Z,2.35
2023-06-06T03:05:06.457Z,1.65
2023-06-06T03:07:33.607Z,1.92
2023-06-06T03:10:00.895Z,1.70
2023-06-06T03:12:34.473Z,1.90
2023-06-06T03:15:02.784Z,1.63
2023-06-06T03:17:37.588Z,1.70
2023-06-06T03:20:08.852Z,1.83
2023-06-06T03:22:38.248Z,1.75
2023-06-06T03:25:05.727Z,1.80
2023-06-06T03:27:32.990Z,1.52
2023-06-06T03:30:00.650Z,1.90
2023-06-06T03:32:31.150Z,1.70
2023-06-06T03:34:58.728Z,1.50
2023-06-06T03:37:30.615Z,2.20
2023-06-06T03:39:58.955Z,1.80
2023-06-06T03:42:26.535Z,1.70
2023-06-06T03:44:53.626Z,1.73
2023-06-06T03:47:21.699Z,1.77
2023-06-06T03:49:58.504Z,1.83
2023-06-06T03:52:26.433Z,1.70
2023-06-06T03:54:53.831Z,1.75
2023-06-06T03:57:20.861Z,1.75
2023-06-06T03:59:48.836Z,1.90
2023-06-06T04:02:16.732Z,2.28
2023-06-06T04:04:43.797Z,1.90
2023-06-06T04:07:11.276Z,1.48
2023-06-06T04:09:40.582Z,1.60
2023-06-06T04:12:10.120Z,1.83
2023-06-06T04:14:37.328Z,1.60
2023-06-06T04:17:05.257Z,1.50
2023-06-06T04:19:32.891Z,1.88
2023-06-06T04:22:00.351Z,2.30
2023-06-06T04:24:27.503Z,2.22
2023-06-06T04:26:54.935Z,1.80
2023-06-06T04:29:22.023Z,1.98
2023-06-06T04:31:49.423Z,1.95
2023-06-06T04:34:18.397Z,2.03
2023-06-06T04:36:47.680Z,2.25
2023-06-06T04:39:17.725Z,2.72
2023-06-06T04:44:19.169Z,2.03
2023-06-06T04:46:49.892Z,1.58
2023-06-06T04:49:17.471Z,1.55
2023-06-06T04:51:45.638Z,1.27
2023-06-06T04:54:14.371Z,1.30
2023-06-06T04:56:41.961Z,1.27
2023-06-06T04:59:09.756Z,1.23
2023-06-06T05:01:39.890Z,1.35
2023-06-06T05:04:08.436Z,1.33
2023-06-06T05:06:35.824Z,1.80
2023-06-06T05:09:09.110Z,1.10
2023-06-06T05:11:36.110Z,1.30
2023-06-06T05:14:04.567Z,1.15
2023-06-06T05:16:31.538Z,1.60
2023-06-06T05:18:58.847Z,1.40
2023-06-06T05:21:26.353Z,1.13
2023-06-06T05:23:55.055Z,1.13
2023-06-06T05:26:22.133Z,1.15
2023-06-06T05:28:49.003Z,1.00
2023-06-06T05:31:21.808Z,0.90
2023-06-06T05:33:49.449Z,1.40
2023-06-06T05:36:16.461Z,1.10
2023-06-06T05:38:43.378Z,1.30
2023-06-06T05:41:10.793Z,1.35
2023-06-06T05:43:38.293Z,1.10
2023-06-06T05:46:06.468Z,0.95
2023-06-06T05:48:33.840Z,1.00
2023-06-06T05:51:01.136Z,1.58
2023-06-06T05:53:29.580Z,1.00
2023-06-06T05:55:56.541Z,1.33
2023-06-06T05:58:23.889Z,1.40
2023-06-06T06:00:50.992Z,1.20
2023-06-06T06:03:18.172Z,1.30
2023-06-06T06:05:46.101Z,1.00
2023-06-06T06:08:13.242Z,1.00
2023-06-06T06:10:40.153Z,1.30
2023-06-06T06:13:07.379Z,1.42
2023-06-06T06:15:36.941Z,1.10
2023-06-06T06:18:04.906Z,1.10
2023-06-06T06:20:32.016Z,1.10
2023-06-06T06:22:59.172Z,1.17
2023-06-06T06:25:26.498Z,1.30
2023-06-06T06:27:53.651Z,1.33
2023-06-06T06:30:21.031Z,1.42
2023-06-06T06:32:48.052Z,1.50
2023-06-06T06:35:15.170Z,1.20
2023-06-06T06:37:42.425Z,1.30
2023-06-06T06:40:13.651Z,1.10
2023-06-06T06:42:43.071Z,1.15
2023-06-06T06:45:30.548Z,1.60
2023-06-06T06:47:57.776Z,1.15
2023-06-06T06:50:24.995Z,1.98
2023-06-06T06:52:55.157Z,1.48
2023-06-06T06:55:25.322Z,1.17
2023-06-06T06:57:53.021Z,1.20
2023-06-06T07:00:23.348Z,1.17
2023-06-06T07:02:53.135Z,1.33
2023-06-06T07:05:20.641Z,1.33
2023-06-06T07:07:51.923Z,1.08
2023-06-06T07:10:26.770Z,1.00
2023-06-06T07:12:53.974Z,1.33
2023-06-06T07:15:26.373Z,1.30
2023-06-06T07:17:53.381Z,1.15
2023-06-06T07:20:23.111Z,1.10
2023-06-06T07:22:54.866Z,1.40
2023-06-06T07:25:22.544Z,1.60
2023-06-06T07:27:49.650Z,1.25
2023-06-06T07:30:17.100Z,1.33
2023-06-06T07:32:46.585Z,1.10
2023-06-06T07:35:16.103Z,1.00
2023-06-06T07:37:43.764Z,1.25
2023-06-06T07:40:16.181Z,1.15
2023-06-06T07:42:44.444Z,1.42
2023-06-06T07:45:12.130Z,1.40
2023-06-06T07:47:41.106Z,1.20
2023-06-06T07:50:09.476Z,1.20
2023-06-06T07:52:37.434Z,1.00
2023-06-06T07:55:08.394Z,1.15
2023-06-06T07:57:35.524Z,1.25
2023-06-06T08:00:08.160Z,1.25
2023-06-06T08:02:41.235Z,1.40
2023-06-06T08:05:09.562Z,1.30
2023-06-06T08:07:39.741Z,1.20
2023-06-06T08:10:07.681Z,1.38
2023-06-06T08:12:34.837Z,1.10
2023-06-06T08:15:20.654Z,1.20
2023-06-06T08:17:47.802Z,1.13
2023-06-06T08:20:15.301Z,1.25
2023-06-06T08:22:52.709Z,1.50
2023-06-06T08:25:19.869Z,1.27
2023-06-06T08:27:46.688Z,1.30
2023-06-06T08:30:13.966Z,1.85
2023-06-06T08:32:41.303Z,1.52
2023-06-06T08:35:08.905Z,1.55
2023-06-06T08:37:36.333Z,1.55
2023-06-06T08:40:03.472Z,1.27
2023-06-06T08:42:33.651Z,2.25
2023-06-06T08:45:02.144Z,1.55
2023-06-06T08:47:32.945Z,1.27
2023-06-06T08:50:02.076Z,1.10
2023-06-06T08:52:30.587Z,1.38
2023-06-06T08:54:57.998Z,1.25
2023-06-06T08:57:25.496Z,1.73
2023-06-06T08:59:52.415Z,1.90
2023-06-06T09:02:19.652Z,1.38
2023-06-06T09:04:49.000Z,1.20
2023-06-06T09:07:16.494Z,1.42
2023-06-06T09:09:46.676Z,1.40
2023-06-06T09:12:13.912Z,1.20
2023-06-06T09:14:41.220Z,1.35
2023-06-06T09:17:16.048Z,1.40
2023-06-06T09:19:46.958Z,1.15
2023-06-06T09:22:14.590Z,1.65
2023-06-06T09:24:46.197Z,1.30
2023-06-06T09:27:31.164Z,1.15
2023-06-06T09:29:58.191Z,1.00
2023-06-06T09:32:30.867Z,1.10
2023-06-06T09:35:07.326Z,1.35
2023-06-06T09:37:34.881Z,1.20
2023-06-06T09:40:15.002Z,1.40
2023-06-06T09:42:46.614Z,1.17
2023-06-06T09:45:20.936Z,1.15
2023-06-06T09:47:50.083Z,1.58
2023-06-06T09:50:19.578Z,1.30
2023-06-06T09:52:50.190Z,1.30
2023-06-06T09:55:18.574Z,1.50
2023-06-06T09:57:48.618Z,1.20
2023-06-06T10:00:16.625Z,1.47
2023-06-06T10:02:49.423Z,1.58
2023-06-06T10:05:25.761Z,1.25
2023-06-06T10:07:53.939Z,1.20
2023-06-06T10:10:21.096Z,1.30
2023-06-06T10:12:49.362Z,1.50
2023-06-06T10:15:18.550Z,1.17
2023-06-06T10:17:45.913Z,1.27
2023-06-06T10:20:13.780Z,1.23
2023-06-06T10:22:42.015Z,1.20
2023-06-06T10:25:14.707Z,1.67
2023-06-06T10:27:51.323Z,1.27
2023-06-06T10:30:25.136Z,1.30
2023-06-06T10:33:22.680Z,1.38
2023-06-06T10:36:03.675Z,1.45
2023-06-06T10:38:33.233Z,1.35
2023-06-06T10:41:00.775Z,1.30
2023-06-06T10:43:35.044Z,1.40
2023-06-06T10:46:04.052Z,1.00
2023-06-06T10:48:40.817Z,1.40
2023-06-06T10:51:40.771Z,1.98
2023-06-06T10:54:28.972Z,1.35
2023-06-06T10:56:57.605Z,1.50
2023-06-06T10:59:29.453Z,1.65
2023-06-06T11:01:57.100Z,1.30
2023-06-06T11:04:26.145Z,1.42
2023-06-06T11:06:59.601Z,1.10
2023-06-06T11:09:31.210Z,1.38
2023-06-06T11:12:13.560Z,1.70
2023-06-06T11:15:06.188Z,2.28
2023-06-06T11:17:56.700Z,1.27
2023-06-06T11:20:28.868Z,1.65
2023-06-06T11:23:05.306Z,1.33
2023-06-06T11:25:38.961Z,1.60
2023-06-06T11:28:07.175Z,1.52
2023-06-06T11:30:38.243Z,1.40
2023-06-06T11:33:11.117Z,2.47
2023-06-06T11:35:40.700Z,2.03
2023-06-06T11:38:08.431Z,1.23
2023-06-06T11:40:35.398Z,1.73
2023-06-06T11:43:03.720Z,1.40
2023-06-06T11:45:32.813Z,1.55
2023-06-06T11:48:14.445Z,1.73
2023-06-06T11:50:45.638Z,1.35
2023-06-06T11:53:12.741Z,1.80
2023-06-06T11:55:40.294Z,1.67
2023-06-06T11:58:07.317Z,1.75
2023-06-06T12:00:34.546Z,1.60
2023-06-06T12:03:02.514Z,1.30
2023-06-06T12:05:30.202Z,1.52
2023-06-06T12:08:01.432Z,1.40
2023-06-06T12:10:31.525Z,1.38
2023-06-06T12:12:59.671Z,1.52
2023-06-06T12:15:53.759Z,3.03
2023-06-06T12:18:21.068Z,1.42
2023-06-06T12:20:48.250Z,1.50
2023-06-06T12:23:32.214Z,1.60
2023-06-06T12:25:59.207Z,1.63
2023-06-06T12:28:26.398Z,2.47
2023-06-06T12:30:53.966Z,1.33
2023-06-06T12:33:22.286Z,1.67
2023-06-06T12:35:49.579Z,1.55
2023-06-06T12:38:21.239Z,1.48
2023-06-06T12:40:56.596Z,1.75
2023-06-06T12:43:23.698Z,1.50
2023-06-06T12:45:50.931Z,1.88
2023-06-06T12:48:23.479Z,1.60
2023-06-06T12:50:51.175Z,1.60
2023-06-06T12:53:19.303Z,1.67
2023-06-06T12:55:47.465Z,1.30
2023-06-06T12:58:14.424Z,1.83
2023-06-06T13:00:41.729Z,1.60
2023-06-06T13:03:11.324Z,2.15
2023-06-06T13:05:38.376Z,1.80
2023-06-06T13:08:05.414Z,2.40
2023-06-06T13:10:32.505Z,1.50
2023-06-06T13:12:59.740Z,1.77
2023-06-06T13:15:28.698Z,2.05
2023-06-06T13:17:56.232Z,2.22
2023-06-06T13:20:23.369Z,2.10
2023-06-06T13:22:50.567Z,2.03
2023-06-06T13:25:17.668Z,1.58
2023-06-06T13:27:44.674Z,1.77
2023-06-06T13:30:12.344Z,1.33
2023-06-06T13:32:39.676Z,1.75
2023-06-06T13:35:07.094Z,1.40
2023-06-06T13:37:34.303Z,1.60
2023-06-06T13:40:01.256Z,1.65
2023-06-06T13:42:28.344Z,1.38
2023-06-06T13:44:56.712Z,1.42
2023-06-06T13:47:23.925Z,1.40
2023-06-06T13:49:51.652Z,1.67
2023-06-06T13:52:18.468Z,1.58
2023-06-06T13:54:45.708Z,1.50
2023-06-06T13:57:14.044Z,1.13
2023-06-06T13:59:42.633Z,1.58
2023-06-06T14:02:10.859Z,1.27
2023-06-06T14:04:38.707Z,1.63
2023-06-06T14:07:06.734Z,1.65
2023-06-06T14:09:33.843Z,1.60
2023-06-06T14:12:02.073Z,1.50
2023-06-06T14:14:28.964Z,1.48
2023-06-06T14:16:56.011Z,1.20
2023-06-06T14:19:38.902Z,1.60
2023-06-06T14:22:22.300Z,1.52
2023-06-06T14:24:50.237Z,1.35
2023-06-06T14:27:17.807Z,1.58
2023-06-06T14:29:47.126Z,1.27
2023-06-06T14:32:15.226Z,1.45
2023-06-06T14:34:43.834Z,1.27
2023-06-06T14:37:11.071Z,1.60
2023-06-06T14:39:38.941Z,1.42
2023-06-06T14:42:07.246Z,1.60
2023-06-06T14:44:38.023Z,1.30
2023-06-06T14:47:07.576Z,1.40
2023-06-06T14:49:36.458Z,1.45
2023-06-06T14:52:07.979Z,1.95
2023-06-06T14:54:35.658Z,1.65
2023-06-06T14:57:02.760Z,1.73
2023-06-06T14:59:30.921Z,2.17
2023-06-06T15:01:58.976Z,1.88
2023-06-06T15:04:31.967Z,1.63
2023-06-06T15:06:58.964Z,2.28
2023-06-06T15:09:27.591Z,2.08
2023-06-06T15:11:57.008Z,1.90
2023-06-06T15:14:27.079Z,1.70
2023-06-06T15:16:59.748Z,1.40
2023-06-06T15:19:27.013Z,1.92
2023-06-06T15:21:54.212Z,1.85
2023-06-06T15:24:25.271Z,2.38
2023-06-06T15:26:57.818Z,2.17
2023-06-06T15:29:25.703Z,1.40
2023-06-06T15:31:54.937Z,1.95
2023-06-06T15:34:22.708Z,1.42
2023-06-06T15:36:50.066Z,1.90
2023-06-06T15:39:17.613Z,1.48
2023-06-06T15:41:45.292Z,1.88
2023-06-06T15:44:13.072Z,1.67
2023-06-06T15:46:41.274Z,1.60
2023-06-06T15:49:08.968Z,1.67
2023-06-06T15:51:36.956Z,1.50
2023-06-06T15:54:04.619Z,1.20
2023-06-06T15:56:31.876Z,1.70
2023-06-06T15:59:02.510Z,1.63
2023-06-06T16:01:30.932Z,1.48
2023-06-06T16:03:59.869Z,2.05
2023-06-06T16:06:29.811Z,2.63
2023-06-06T16:09:06.670Z,1.70
2023-06-06T16:11:33.499Z,2.20
2023-06-06T16:14:00.982Z,1.58
2023-06-06T16:16:28.093Z,1.50
2023-06-06T16:18:55.424Z,1.50
2023-06-06T16:21:22.588Z,1.15
2023-06-06T16:23:50.313Z,1.10
2023-06-06T16:26:18.424Z,1.63
2023-06-06T16:28:45.422Z,1.20
2023-06-06T16:31:13.943Z,1.23
2023-06-06T16:33:41.631Z,1.20
2023-06-06T16:36:08.590Z,1.50
2023-06-06T16:38:35.900Z,1.25
2023-06-06T16:41:03.179Z,1.42
2023-06-06T16:43:31.498Z,1.27
2023-06-06T16:45:58.633Z,1.35
2023-06-06T16:48:26.593Z,1.67
2023-06-06T16:50:53.907Z,1.00
2023-06-06T16:53:21.153Z,1.10
2023-06-06T16:55:48.328Z,1.23
2023-06-06T16:58:15.894Z,1.25
2023-06-06T17:00:45.109Z,1.30
2023-06-06T17:03:14.476Z,1.30
2023-06-06T17:05:41.606Z,1.00
2023-06-06T17:08:08.842Z,1.25
2023-06-06T17:10:36.062Z,1.77
2023-06-06T17:13:04.288Z,1.25
2023-06-06T17:15:31.564Z,1.33
2023-06-06T17:17:58.540Z,1.40
2023-06-06T17:20:29.645Z,1.30
2023-06-06T17:22:57.532Z,1.50
2023-06-06T17:25:28.688Z,1.40
2023-06-06T17:28:01.697Z,1.00
2023-06-06T17:30:29.634Z,2.10
2023-06-06T17:32:56.626Z,1.70
2023-06-06T17:35:24.038Z,1.60
2023-06-06T17:37:51.142Z,1.10
2023-06-06T17:40:18.271Z,1.25
2023-06-06T17:42:47.574Z,1.40
2023-06-06T17:45:16.799Z,1.67
2023-06-06T17:47:44.939Z,1.37
2023-06-06T17:50:12.033Z,1.52
2023-06-06T17:52:38.935Z,1.40
2023-06-06T17:55:06.317Z,1.17
2023-06-06T17:57:34.871Z,1.40
2023-06-06T18:00:03.106Z,1.42
2023-06-06T18:02:37.406Z,1.10
2023-06-06T18:05:15.718Z,1.20
2023-06-06T18:07:47.657Z,1.27
2023-06-06T18:10:15.917Z,1.20
2023-06-06T18:12:45.393Z,1.35
2023-06-06T18:15:12.796Z,1.33
2023-06-06T18:17:41.710Z,1.15
2023-06-06T18:20:13.532Z,1.15
2023-06-06T18:22:41.085Z,1.33
2023-06-06T18:25:08.515Z,1.40
2023-06-06T18:27:35.639Z,1.05
2023-06-06T18:30:02.505Z,1.33
2023-06-06T18:32:29.568Z,1.55
2023-06-06T18:34:57.307Z,1.30
2023-06-06T18:37:24.319Z,1.08
2023-06-06T18:39:53.331Z,1.48
2023-06-06T18:42:21.847Z,1.13
2023-06-06T18:44:59.849Z,1.52
2023-06-06T18:47:29.554Z,1.50
2023-06-06T18:49:57.672Z,1.58
2023-06-06T18:52:24.881Z,1.70
2023-06-06T18:54:51.742Z,1.73
2023-06-06T18:57:18.713Z,1.20
2023-06-06T18:59:45.609Z,1.30
2023-06-06T19:02:12.616Z,1.45
2023-06-06T19:04:39.648Z,1.45
2023-06-06T19:07:06.712Z,1.50
2023-06-06T19:09:34.126Z,1.58
2023-06-06T19:12:01.142Z,1.50
2023-06-06T19:14:28.326Z,1.67
2023-06-06T19:16:55.517Z,1.95
2023-06-06T19:19:22.690Z,1.77
2023-06-06T19:21:50.863Z,2.03
2023-06-06T19:24:17.772Z,1.83
2023-06-06T19:26:46.524Z,2.00
2023-06-06T19:29:16.723Z,1.85
2023-06-06T19:31:45.339Z,1.75
2023-06-06T19:34:16.083Z,1.63
2023-06-06T19:36:44.268Z,1.92
2023-06-06T19:39:11.212Z,1.80
2023-06-06T19:41:38.146Z,2.25
2023-06-06T19:44:05.364Z,2.20
2023-06-06T19:46:32.289Z,1.90
2023-06-06T19:48:59.413Z,2.00
2023-06-06T19:51:26.937Z,2.10
2023-06-06T19:54:02.324Z,1.77
2023-06-06T19:56:30.028Z,2.55
2023-06-06T19:58:58.419Z,2.05
2023-06-06T20:01:26.317Z,1.90
2023-06-06T20:03:55.588Z,2.25
2023-06-06T20:06:22.792Z,1.75
2023-06-06T20:08:49.670Z,2.20
2023-06-06T20:11:16.640Z,2.50
2023-06-06T20:13:43.538Z,2.15
2023-06-06T20:16:12.825Z,2.35
2023-06-06T20:18:50.788Z,2.30
2023-06-06T20:21:18.106Z,2.47
2023-06-06T20:23:54.143Z,2.63
2023-06-06T20:26:23.951Z,2.55
2023-06-06T20:28:56.383Z,2.70
2023-06-06T20:31:28.224Z,2.17
2023-06-06T20:33:55.085Z,3.13
2023-06-06T20:36:30.756Z,3.15
2023-06-06T20:38:57.591Z,2.53
2023-06-06T20:41:24.888Z,3.55
2023-06-06T20:43:52.985Z,3.63
2023-06-06T20:46:20.262Z,3.45
2023-06-06T20:48:47.312Z,2.13
2023-06-06T20:51:14.615Z,2.63
2023-06-06T20:53:42.395Z,2.90
2023-06-06T20:56:09.753Z,2.65
2023-06-06T20:58:36.786Z,2.50
2023-06-06T21:01:03.859Z,2.05
2023-06-06T21:03:34.404Z,3.13
2023-06-06T21:06:03.197Z,2.55
2023-06-06T21:08:32.982Z,2.30
2023-06-06T21:11:04.207Z,3.38
2023-06-06T21:13:31.734Z,2.67
2023-06-06T21:15:58.634Z,2.80
2023-06-06T21:18:29.074Z,3.08
2023-06-06T21:20:56.373Z,2.20
2023-06-06T21:23:23.336Z,2.42
2023-06-06T21:25:50.171Z,2.58
2023-06-06T21:28:17.049Z,2.85
2023-06-06T21:30:44.604Z,2.75
2023-06-06T21:33:15.540Z,2.40
2023-06-06T21:35:42.510Z,2.22
2023-06-06T21:38:13.445Z,2.30
2023-06-06T21:40:41.510Z,2.78
2023-06-06T21:43:08.396Z,2.60
2023-06-06T21:45:35.449Z,2.90
2023-06-06T21:48:02.524Z,2.67
2023-06-06T21:50:29.564Z,2.70
2023-06-06T21:52:56.452Z,2.83
2023-06-06T21:55:23.442Z,3.45
2023-06-06T21:57:51.425Z,3.10
2023-06-06T22:00:19.930Z,2.88
2023-06-06T22:02:46.945Z,3.20
2023-06-06T22:05:13.927Z,3.15
2023-06-06T22:07:44.236Z,3.25
2023-06-06T22:10:14.316Z,3.00
2023-06-06T22:12:41.923Z,3.92
2023-06-06T22:15:09.652Z,2.75
2023-06-06T22:17:36.529Z,3.47
2023-06-06T22:20:05.089Z,3.50
2023-06-06T22:22:32.374Z,4.07
2023-06-06T22:24:59.385Z,3.30
2023-06-06T22:27:26.362Z,3.50
2023-06-06T22:29:53.298Z,3.60
2023-06-06T22:32:24.621Z,3.58
2023-06-06T22:37:19.799Z,3.78
2023-06-06T22:39:46.660Z,3.80
2023-06-06T22:42:13.566Z,4.20
2023-06-06T22:44:40.473Z,3.90
2023-06-06T22:47:07.563Z,4.65
2023-06-06T22:49:34.588Z,4.25
2023-06-06T22:52:01.490Z,5.15
2023-06-06T22:54:28.394Z,5.07
2023-06-06T22:56:55.325Z,5.00
2023-06-06T22:59:22.160Z,5.15
2023-06-06T23:01:50.854Z,4.60
2023-06-06T23:04:17.855Z,3.97
2023-06-06T23:06:44.743Z,4.60
2023-06-06T23:09:11.573Z,4.40
2023-06-06T23:11:38.495Z,4.78
2023-06-06T23:14:05.535Z,4.97
2023-06-06T23:16:32.553Z,4.57
2023-06-06T23:18:59.498Z,4.93
2023-06-06T23:21:28.907Z,4.97
2023-06-06T23:23:57.270Z,4.90
2023-06-06T23:26:24.224Z,5.00
2023-06-06T23:28:54.544Z,5.20
2023-06-06T23:31:21.546Z,5.55
2023-06-06T23:33:48.384Z,5.00
2023-06-06T23:36:16.302Z,6.20
2023-06-06T23:38:43.331Z,6.05
2023-06-06T23:41:10.197Z,5.72
2023-06-06T23:43:37.213Z,5.72
2023-06-06T23:46:07.918Z,5.60
2023-06-06T23:48:34.850Z,5.30
2023-06-06T23:51:03.213Z,6.00
2023-06-06T23:53:32.123Z,6.18
2023-06-06T23:56:01.882Z,5.30
2023-06-06T23:58:28.903Z,5.25
